Time;durP1;ratioP1;P1;durP2;ratioP2;P2;SDS_P1;SDS_P2;PMS_P1;PMS_P2;Temp;Humidity;BMP_temperature;BMP_pressure;BME280_temperature;BME280_humidity;BME280_pressure;Samples;Min_cycle;Max_cycle;Signal;HPM_P1;HPM_P2
2022/04/11 00:00:34;;;;;;;5.03;3.47;;;7.20;99.90;;;;;;7391026;19;20135;-74
2022/04/11 00:03:00;;;;;;;7.87;3.03;;;7.20;99.90;;;;;;7392440;19;20135;-74
2022/04/11 00:05:26;;;;;;;7.43;4.00;;;7.20;99.90;;;;;;7392612;19;20132;-70
2022/04/11 00:07:52;;;;;;;5.50;3.70;;;7.20;99.90;;;;;;7392307;19;20181;-75
2022/04/11 00:10:18;;;;;;;5.50;4.10;;;7.20;99.90;;;;;;7389030;19;20197;-73
2022/04/11 00:12:44;;;;;;;6.33;3.70;;;7.10;99.90;;;;;;7391717;19;20133;-69
2022/04/11 00:15:10;;;;;;;7.37;4.53;;;7.10;99.90;;;;;;7390297;19;20137;-70
2022/04/11 00:17:36;;;;;;;6.13;3.87;;;7.00;99.90;;;;;;7395498;19;20496;-70
2022/04/11 00:20:04;;;;;;;5.23;3.80;;;6.90;99.90;;;;;;7391970;19;20569;-73
2022/04/11 00:22:33;;;;;;;5.30;3.47;;;7.00;99.90;;;;;;7392482;19;20600;-70
2022/04/11 00:24:58;;;;;;;6.23;3.20;;;7.10;99.90;;;;;;7390140;19;20178;-74
2022/04/11 00:27:24;;;;;;;6.13;3.60;;;6.90;99.90;;;;;;7390829;19;20160;-71
2022/04/11 00:29:50;;;;;;;5.27;3.10;;;6.90;99.90;;;;;;7389021;19;20538;-71
2022/04/11 00:32:16;;;;;;;6.70;3.20;;;7.00;99.90;;;;;;7390541;19;20194;-75
2022/04/11 00:34:41;;;;;;;7.03;3.43;;;7.00;99.90;;;;;;7391445;19;20194;-73
2022/04/11 00:37:07;;;;;;;4.27;3.03;;;7.00;99.90;;;;;;7391637;19;20123;-74
2022/04/11 00:39:33;;;;;;;7.13;3.23;;;7.00;99.90;;;;;;7390910;19;20180;-70
2022/04/11 00:42:10;;;;;;;3.63;2.93;;;6.90;99.90;;;;;;7390752;19;20586;-71
2022/04/11 00:44:36;;;;;;;5.73;3.27;;;6.90;99.90;;;;;;7391263;19;20620;-70
2022/04/11 00:47:02;;;;;;;5.17;3.03;;;6.90;99.90;;;;;;7391158;19;20190;-74
2022/04/11 00:49:28;;;;;;;6.33;2.70;;;7.00;99.90;;;;;;7393894;19;20141;-75
2022/04/11 00:51:53;;;;;;;4.87;3.33;;;7.00;99.90;;;;;;7392097;19;20127;-75
2022/04/11 00:54:20;;;;;;;4.43;3.23;;;7.00;99.90;;;;;;7390972;19;20202;-74
2022/04/11 00:56:47;;;;;;;4.83;3.53;;;7.00;99.90;;;;;;7389316;19;20122;-71
2022/04/11 00:59:15;;;;;;;4.67;3.30;;;7.00;99.90;;;;;;7394651;19;20125;-71
2022/04/11 01:01:42;;;;;;;6.83;3.10;;;6.80;99.90;;;;;;7392628;19;20147;-70
2022/04/11 01:04:23;;;;;;;4.77;3.00;;;6.80;99.90;;;;;;7392336;19;20573;-69
2022/04/11 01:06:55;;;;;;;5.10;3.07;;;6.70;99.90;;;;;;7388260;19;20912;-70
2022/04/11 01:09:24;;;;;;;5.17;2.97;;;6.60;99.90;;;;;;7393864;19;20135;-70
2022/04/11 01:11:51;;;;;;;6.17;3.20;;;6.60;99.90;;;;;;7388751;19;20150;-71
2022/04/11 01:14:17;;;;;;;5.23;3.33;;;6.70;99.90;;;;;;7389825;19;20137;-71
2022/04/11 01:16:50;;;;;;;4.70;3.53;;;6.90;99.90;;;;;;7391849;19;20130;-71
2022/04/11 01:19:17;;;;;;;5.33;3.33;;;6.90;99.90;;;;;;7394771;19;20130;-75
2022/04/11 01:21:44;;;;;;;4.30;3.07;;;6.70;99.90;;;;;;7391943;19;20138;-69
2022/04/11 01:24:09;;;;;;;6.57;2.97;;;6.60;99.90;;;;;;7390869;19;20159;-73
2022/04/11 01:26:36;;;;;;;5.63;3.60;;;6.50;99.90;;;;;;7388267;19;20127;-73
2022/04/11 01:29:04;;;;;;;5.70;3.67;;;6.70;99.90;;;;;;7387303;19;20145;-70
2022/04/11 01:31:30;;;;;;;4.43;3.13;;;6.80;99.90;;;;;;7387656;19;20131;-74
2022/04/11 01:33:56;;;;;;;5.23;3.30;;;6.80;99.90;;;;;;7387755;19;20150;-75
2022/04/11 01:36:22;;;;;;;5.60;3.33;;;6.70;99.90;;;;;;7390810;19;20153;-75
2022/04/11 01:38:48;;;;;;;4.20;3.10;;;6.80;99.90;;;;;;7388858;19;20652;-70
2022/04/11 01:41:14;;;;;;;4.87;3.07;;;6.80;99.90;;;;;;7390997;19;20138;-74
2022/04/11 01:43:40;;;;;;;5.67;3.07;;;6.70;99.90;;;;;;7388605;19;20146;-70
2022/04/11 01:46:09;;;;;;;6.50;3.30;;;6.40;99.90;;;;;;7390409;19;20167;-74
2022/04/11 01:48:34;;;;;;;4.77;3.20;;;6.50;99.90;;;;;;7390310;19;20150;-71
2022/04/11 01:51:00;;;;;;;6.73;3.07;;;6.50;99.90;;;;;;7385996;19;20139;-70
2022/04/11 01:53:26;;;;;;;3.90;2.50;;;6.50;99.90;;;;;;7392139;19;20135;-70
2022/04/11 01:55:51;;;;;;;5.23;2.90;;;6.50;99.90;;;;;;7391320;19;20928;-70
2022/04/11 01:58:17;;;;;;;6.00;3.17;;;6.50;99.90;;;;;;7393034;19;20193;-75
2022/04/11 02:00:44;;;;;;;5.17;3.23;;;6.70;99.90;;;;;;7392521;19;20141;-75
2022/04/11 02:03:11;;;;;;;5.23;3.00;;;6.80;99.90;;;;;;7387534;19;20142;-70
2022/04/11 02:05:40;;;;;;;5.57;3.20;;;6.90;99.90;;;;;;7387185;19;20674;-74
2022/04/11 02:08:07;;;;;;;5.70;3.40;;;6.90;99.90;;;;;;7388231;19;20127;-74
2022/04/11 02:10:35;;;;;;;4.33;3.20;;;6.70;99.90;;;;;;7388019;19;20135;-70
2022/04/11 02:13:01;;;;;;;6.77;3.37;;;6.70;99.90;;;;;;7387324;19;20139;-69
2022/04/11 02:15:27;;;;;;;4.97;3.77;;;6.70;99.90;;;;;;7387884;19;20160;-74
2022/04/11 02:17:53;;;;;;;4.77;3.53;;;6.80;99.90;;;;;;7389361;19;20663;-74
2022/04/11 02:20:19;;;;;;;4.73;3.30;;;6.80;99.90;;;;;;7399675;19;20198;-70
2022/04/11 02:22:49;;;;;;;4.30;2.97;;;6.80;99.90;;;;;;7390858;19;20152;-71
2022/04/11 02:25:16;;;;;;;5.40;3.43;;;6.80;99.90;;;;;;7385962;19;20504;-74
2022/04/11 02:27:42;;;;;;;7.27;4.10;;;6.70;99.90;;;;;;7384942;19;20131;-71
2022/04/11 02:30:09;;;;;;;4.67;2.90;;;6.70;99.90;;;;;;7385877;19;20601;-70
2022/04/11 02:32:35;;;;;;;5.40;3.43;;;6.70;99.90;;;;;;7385946;19;20155;-72
2022/04/11 02:35:01;;;;;;;5.27;3.63;;;6.70;99.90;;;;;;7388695;19;20131;-72
2022/04/11 02:37:26;;;;;;;4.80;3.10;;;6.70;99.90;;;;;;7384682;19;20130;-70
2022/04/11 02:39:52;;;;;;;6.73;3.57;;;6.50;99.90;;;;;;7386718;19;20146;-71
2022/04/11 02:42:24;;;;;;;4.77;3.07;;;6.00;99.90;;;;;;7392056;19;20241;-70
2022/04/11 02:44:51;;;;;;;4.93;3.23;;;6.20;99.90;;;;;;7390154;19;20173;-74
2022/04/11 02:47:17;;;;;;;5.23;3.33;;;6.50;99.90;;;;;;7390142;19;20134;-70
2022/04/11 02:49:43;;;;;;;5.10;2.87;;;6.40;99.90;;;;;;7384689;19;20127;-70
2022/04/11 02:52:08;;;;;;;4.37;3.13;;;5.60;99.90;;;;;;7389257;19;20474;-70
2022/04/11 02:54:36;;;;;;;5.43;3.73;;;5.70;99.90;;;;;;7386600;19;20760;-71
2022/04/11 02:57:02;;;;;;;7.07;3.17;;;5.90;99.90;;;;;;7384420;19;20150;-70
2022/04/11 02:59:28;;;;;;;6.33;3.37;;;6.20;99.90;;;;;;7389850;19;20122;-76
2022/04/11 03:01:55;;;;;;;4.60;3.13;;;5.80;99.90;;;;;;7389507;19;20161;-74
2022/04/11 03:04:21;;;;;;;4.17;3.40;;;5.70;99.90;;;;;;7388190;19;20598;-75
2022/04/11 03:06:47;;;;;;;5.87;3.57;;;6.00;99.90;;;;;;7390780;19;20150;-70
2022/04/11 03:09:13;;;;;;;6.00;3.30;;;6.00;99.90;;;;;;7390312;19;20141;-70
2022/04/11 03:11:39;;;;;;;10.07;3.40;;;6.30;99.90;;;;;;7384240;19;20170;-69
2022/04/11 03:14:05;;;;;;;4.90;3.13;;;6.40;99.90;;;;;;7386556;19;20141;-69
2022/04/11 03:16:31;;;;;;;4.83;3.20;;;6.40;99.90;;;;;;7386916;19;20135;-71
2022/04/11 03:18:57;;;;;;;3.50;3.07;;;6.30;99.90;;;;;;7386576;19;20149;-74
2022/04/11 03:21:23;;;;;;;5.47;3.07;;;6.20;99.90;;;;;;7384159;19;20689;-70
2022/04/11 03:23:49;;;;;;;5.70;3.17;;;6.00;99.90;;;;;;7385986;19;20131;-75
2022/04/11 03:26:15;;;;;;;5.60;3.50;;;6.30;99.90;;;;;;7383647;19;20466;-71
2022/04/11 03:28:40;;;;;;;9.77;3.33;;;6.40;99.90;;;;;;7386831;19;20185;-70
2022/04/11 03:31:06;;;;;;;5.53;3.97;;;6.60;99.90;;;;;;7386909;19;20152;-74
2022/04/11 03:33:32;;;;;;;5.33;3.50;;;6.70;99.90;;;;;;7384938;19;20474;-75
2022/04/11 03:35:58;;;;;;;6.23;3.27;;;6.60;99.90;;;;;;7385395;19;20142;-71
2022/04/11 03:38:23;;;;;;;7.37;3.40;;;6.30;99.90;;;;;;7383162;19;20218;-71
2022/04/11 03:40:51;;;;;;;6.60;3.37;;;6.30;99.90;;;;;;7383765;19;20249;-69
2022/04/11 03:43:17;;;;;;;5.30;3.33;;;6.30;99.90;;;;;;7384957;19;20190;-74
2022/04/11 03:45:43;;;;;;;6.00;3.50;;;6.30;99.90;;;;;;7384365;19;20148;-69
2022/04/11 03:48:09;;;;;;;10.47;3.90;;;6.00;99.90;;;;;;7384829;19;20219;-70
2022/04/11 03:50:34;;;;;;;8.40;3.70;;;6.10;99.90;;;;;;7392514;19;20148;-75
2022/04/11 03:53:00;;;;;;;5.60;3.30;;;6.40;99.90;;;;;;7398475;19;20144;-74
2022/04/11 03:55:26;;;;;;;6.67;3.47;;;6.60;99.90;;;;;;7393517;19;20777;-70
2022/04/11 03:57:52;;;;;;;6.67;3.67;;;6.40;99.90;;;;;;7391931;19;20127;-74
2022/04/11 04:00:17;;;;;;;5.40;3.50;;;6.30;99.90;;;;;;7390633;19;20131;-71
2022/04/11 04:02:46;;;;;;;7.50;3.30;;;6.20;99.90;;;;;;7393277;19;20122;-74
2022/04/11 04:05:12;;;;;;;8.07;4.00;;;6.50;99.90;;;;;;7393366;19;20511;-70
2022/04/11 04:07:40;;;;;;;8.57;4.10;;;6.30;99.90;;;;;;7390032;19;20131;-69
2022/04/11 04:10:07;;;;;;;8.30;3.73;;;5.90;99.90;;;;;;7391350;19;20130;-75
2022/04/11 04:12:32;;;;;;;6.27;4.27;;;6.10;99.90;;;;;;7394696;19;20143;-71
2022/04/11 04:14:58;;;;;;;7.50;3.93;;;6.30;99.90;;;;;;7391274;19;20145;-75
2022/04/11 04:17:24;;;;;;;8.33;3.97;;;6.40;99.90;;;;;;7394496;19;20194;-74
2022/04/11 04:19:50;;;;;;;6.67;3.80;;;6.40;99.90;;;;;;7392133;19;20130;-74
2022/04/11 04:22:16;;;;;;;7.10;4.07;;;6.40;99.90;;;;;;7391540;19;20160;-70
2022/04/11 04:24:41;;;;;;;5.83;3.87;;;6.30;99.90;;;;;;7392115;19;20131;-70
2022/04/11 04:27:08;;;;;;;4.90;3.40;;;6.10;99.90;;;;;;7388710;19;20164;-74
2022/04/11 04:29:34;;;;;;;7.43;3.20;;;6.30;99.90;;;;;;7390309;19;20131;-70
2022/04/11 04:32:00;;;;;;;6.80;3.77;;;6.50;99.90;;;;;;7392598;19;20650;-70
2022/04/11 04:34:26;;;;;;;7.93;4.20;;;6.40;99.90;;;;;;7390014;19;20154;-74
2022/04/11 04:36:53;;;;;;;5.33;3.80;;;6.30;99.90;;;;;;7389070;19;20162;-75
2022/04/11 04:39:19;;;;;;;7.73;4.37;;;6.30;99.90;;;;;;7392004;19;20150;-71
2022/04/11 04:41:44;;;;;;;8.43;4.07;;;6.40;99.90;;;;;;7390245;19;20137;-75
2022/04/11 04:44:10;;;;;;;4.30;3.37;;;6.30;99.90;;;;;;7390160;19;20131;-75
2022/04/11 04:46:36;;;;;;;5.53;3.57;;;6.40;99.90;;;;;;7390329;19;20126;-70
2022/04/11 04:49:03;;;;;;;5.90;3.83;;;6.40;99.90;;;;;;7389504;19;20123;-70
2022/04/11 04:51:29;;;;;;;10.00;4.17;;;6.40;99.90;;;;;;7392608;19;20130;-70
2022/04/11 04:53:55;;;;;;;5.03;3.73;;;6.40;99.90;;;;;;7391448;19;20138;-75
2022/04/11 04:56:21;;;;;;;9.10;4.40;;;6.30;99.90;;;;;;7394865;19;20135;-74
2022/04/11 04:58:47;;;;;;;7.13;4.00;;;6.40;99.90;;;;;;7391781;19;20142;-73
2022/04/11 05:01:13;;;;;;;6.53;3.70;;;6.20;99.90;;;;;;7388726;19;20668;-75
2022/04/11 05:03:39;;;;;;;5.23;3.73;;;6.20;99.90;;;;;;7389148;19;20119;-75
2022/04/11 05:06:05;;;;;;;7.77;3.90;;;6.10;99.90;;;;;;7390677;19;20135;-71
2022/04/11 05:08:32;;;;;;;8.83;4.43;;;5.90;99.90;;;;;;7388243;19;20143;-74
2022/04/11 05:10:59;;;;;;;7.07;3.80;;;6.00;99.90;;;;;;7389042;19;20166;-70
2022/04/11 05:13:24;;;;;;;4.67;3.57;;;6.00;99.90;;;;;;7387576;19;20158;-75
2022/04/11 05:15:50;;;;;;;5.63;4.00;;;5.90;99.90;;;;;;7390100;19;20625;-74
2022/04/11 05:18:16;;;;;;;8.50;4.60;;;5.90;99.90;;;;;;7391956;19;20160;-74
2022/04/11 05:20:42;;;;;;;5.67;4.23;;;6.00;99.90;;;;;;7390306;19;20131;-74
2022/04/11 05:23:08;;;;;;;7.20;4.17;;;5.90;99.90;;;;;;7389177;19;20130;-70
2022/04/11 05:25:34;;;;;;;6.17;4.23;;;5.80;99.90;;;;;;7388438;19;20150;-76
2022/04/11 05:28:00;;;;;;;6.20;3.87;;;6.00;99.90;;;;;;7387550;19;20157;-74
2022/04/11 05:30:26;;;;;;;7.07;4.13;;;6.00;99.90;;;;;;7386648;19;20135;-74
2022/04/11 05:32:51;;;;;;;9.27;4.30;;;6.00;99.90;;;;;;7392704;19;20142;-73
2022/04/11 05:35:17;;;;;;;8.07;4.47;;;6.10;99.90;;;;;;7388543;19;20142;-74
2022/04/11 05:37:43;;;;;;;10.50;4.60;;;6.30;99.90;;;;;;7390639;19;20169;-69
2022/04/11 05:40:11;;;;;;;6.97;3.90;;;6.30;99.90;;;;;;7394218;19;20156;-75
2022/04/11 05:42:37;;;;;;;7.30;3.60;;;6.30;99.90;;;;;;7395752;19;20138;-71
2022/04/11 05:45:05;;;;;;;8.27;4.13;;;6.10;99.90;;;;;;7391440;19;20130;-74
2022/04/11 05:47:31;;;;;;;9.30;3.80;;;6.10;99.90;;;;;;7389324;19;20702;-73
2022/04/11 05:49:57;;;;;;;5.90;4.20;;;6.10;99.90;;;;;;7390455;19;20139;-75
2022/04/11 05:52:23;;;;;;;6.07;4.20;;;5.90;99.90;;;;;;7390755;19;20153;-74
2022/04/11 05:54:49;;;;;;;5.80;3.77;;;6.00;99.90;;;;;;7389535;19;20714;-69
2022/04/11 05:57:15;;;;;;;5.10;4.13;;;6.10;99.90;;;;;;7389820;19;20134;-74
2022/04/11 05:59:41;;;;;;;7.50;3.90;;;6.20;99.90;;;;;;7386788;19;20482;-74
2022/04/11 06:02:10;;;;;;;8.43;4.40;;;6.40;99.90;;;;;;7390358;19;20190;-74
2022/04/11 06:04:37;;;;;;;7.67;4.37;;;6.60;99.90;;;;;;7390612;19;20597;-75
2022/04/11 06:07:04;;;;;;;6.97;4.27;;;6.80;99.90;;;;;;7385647;19;20147;-70
2022/04/11 06:09:30;;;;;;;7.13;4.53;;;6.80;99.90;;;;;;7387892;19;20127;-71
2022/04/11 06:11:56;;;;;;;7.13;5.20;;;6.90;99.90;;;;;;7387186;19;20131;-76
2022/04/11 06:14:22;;;;;;;8.80;6.07;;;6.90;99.90;;;;;;7387637;19;20122;-70
2022/04/11 06:16:48;;;;;;;8.13;5.40;;;7.00;99.90;;;;;;7386610;19;20141;-71
2022/04/11 06:19:17;;;;;;;9.57;4.90;;;7.00;99.90;;;;;;7384262;19;20142;-70
2022/04/11 06:21:43;;;;;;;7.37;4.70;;;6.90;99.90;;;;;;7389168;19;20833;-75
2022/04/11 06:24:09;;;;;;;7.47;5.30;;;6.50;99.90;;;;;;7390781;19;20139;-71
2022/04/11 06:26:35;;;;;;;7.57;4.80;;;6.60;99.90;;;;;;7385275;19;20135;-71
2022/04/11 06:29:01;;;;;;;7.40;4.90;;;6.30;99.90;;;;;;7383012;19;20885;-70
2022/04/11 06:31:26;;;;;;;9.00;4.77;;;6.10;99.90;;;;;;7383602;19;20149;-75
2022/04/11 06:33:52;;;;;;;6.17;4.67;;;5.80;99.90;;;;;;7385657;19;20704;-70
2022/04/11 06:36:18;;;;;;;6.87;4.53;;;6.00;99.90;;;;;;7386993;19;21179;-70
2022/04/11 06:38:44;;;;;;;7.90;4.80;;;6.20;99.90;;;;;;7385318;19;20155;-75
2022/04/11 06:41:10;;;;;;;7.23;4.40;;;6.50;99.90;;;;;;7385791;19;20127;-75
2022/04/11 06:43:35;;;;;;;7.17;4.57;;;6.70;99.90;;;;;;7392545;19;20131;-73
2022/04/11 06:46:01;;;;;;;8.53;4.97;;;7.00;99.90;;;;;;7397069;19;20127;-69
2022/04/11 06:48:27;;;;;;;10.30;4.87;;;7.20;99.90;;;;;;7385525;19;20141;-75
2022/04/11 06:50:53;;;;;;;10.17;5.30;;;7.30;99.90;;;;;;7388237;19;20769;-75
2022/04/11 06:53:19;;;;;;;8.10;4.80;;;7.30;99.90;;;;;;7390743;19;20155;-74
2022/04/11 06:55:47;;;;;;;8.73;5.00;;;7.40;99.90;;;;;;7389062;19;20130;-75
2022/04/11 06:58:17;;;;;;;7.97;5.23;;;7.50;99.90;;;;;;7384818;19;20147;-74
2022/04/11 07:00:44;;;;;;;6.53;4.63;;;7.50;99.90;;;;;;7385382;19;20127;-75
2022/04/11 07:03:12;;;;;;;6.80;4.67;;;7.70;99.90;;;;;;7386334;19;20134;-69
2022/04/11 07:05:39;;;;;;;9.93;5.30;;;7.70;99.90;;;;;;7385467;19;20134;-69
2022/04/11 07:08:06;;;;;;;7.07;4.97;;;7.80;99.90;;;;;;7389024;19;20150;-76
2022/04/11 07:10:32;;;;;;;10.17;5.23;;;7.90;99.90;;;;;;7386375;19;20174;-75
2022/04/11 07:12:59;;;;;;;7.13;4.97;;;7.90;99.90;;;;;;7385225;19;20127;-75
2022/04/11 07:15:25;;;;;;;9.70;5.20;;;8.10;99.90;;;;;;7386354;19;20239;-75
2022/04/11 07:17:51;;;;;;;8.87;4.97;;;8.30;99.90;;;;;;7387235;19;20127;-76
2022/04/11 07:20:17;;;;;;;8.13;4.80;;;8.40;99.90;;;;;;7384119;19;20142;-71
2022/04/11 07:22:43;;;;;;;10.93;4.63;;;8.60;99.90;;;;;;7385892;19;20127;-74
2022/04/11 07:25:10;;;;;;;5.13;3.53;;;8.70;99.90;;;;;;7389590;19;20132;-69
2022/04/11 07:27:36;;;;;;;6.30;3.70;;;8.90;99.90;;;;;;7392903;19;20127;-70
2022/04/11 07:30:03;;;;;;;5.97;3.90;;;9.10;99.90;;;;;;7391210;19;20646;-76
2022/04/11 07:32:29;;;;;;;7.03;3.73;;;9.20;99.90;;;;;;7394185;19;20939;-76
2022/04/11 07:34:59;;;;;;;8.00;3.90;;;9.40;99.90;;;;;;7391958;19;20189;-76
2022/04/11 07:37:26;;;;;;;12.07;6.60;;;9.70;99.90;;;;;;7393150;19;20143;-75
2022/04/11 07:39:55;;;;;;;7.40;3.70;;;10.00;99.90;;;;;;7389138;19;20161;-75
2022/04/11 07:42:20;;;;;;;4.87;3.10;;;10.70;99.90;;;;;;7394874;19;20155;-71
2022/04/11 07:44:48;;;;;;;4.43;3.23;;;11.40;99.90;;;;;;7390984;19;20154;-74
2022/04/11 07:47:13;;;;;;;6.20;3.80;;;12.20;99.90;;;;;;7390320;19;20138;-76
2022/04/11 07:49:40;;;;;;;4.20;3.17;;;12.80;99.90;;;;;;7391606;19;20158;-75
2022/04/11 07:52:06;;;;;;;4.23;2.80;;;13.40;99.90;;;;;;7398626;19;20713;-70
2022/04/11 07:54:32;;;;;;;4.13;2.70;;;14.10;99.90;;;;;;7393494;19;20134;-70
2022/04/11 07:56:58;;;;;;;6.20;3.20;;;14.70;98.50;;;;;;7389910;19;20135;-75
2022/04/11 07:59:24;;;;;;;3.07;2.20;;;14.80;97.20;;;;;;7390517;19;20138;-74
2022/04/11 08:01:51;;;;;;;2.50;1.90;;;14.70;96.10;;;;;;7390555;19;20643;-75
2022/04/11 08:04:18;;;;;;;3.73;2.40;;;14.20;95.60;;;;;;7392455;19;20481;-70
2022/04/11 08:06:44;;;;;;;4.10;2.20;;;14.40;95.90;;;;;;7390136;19;20134;-72
2022/04/11 08:09:10;;;;;;;3.07;2.50;;;14.30;95.70;;;;;;7390603;19;20157;-74
2022/04/11 08:11:36;;;;;;;3.60;2.03;;;14.30;95.60;;;;;;7396489;19;20135;-74
2022/04/11 08:14:01;;;;;;;3.77;2.00;;;14.40;95.70;;;;;;7390770;19;20134;-71
2022/04/11 08:16:27;;;;;;;2.07;1.87;;;14.20;95.60;;;;;;7389904;19;20211;-74
2022/04/11 08:18:53;;;;;;;4.50;2.00;;;14.20;95.50;;;;;;7390408;19;20135;-71
2022/04/11 08:21:19;;;;;;;4.57;2.20;;;14.30;95.30;;;;;;7390895;19;20670;-70
2022/04/11 08:23:45;;;;;;;2.93;2.13;;;14.10;95.70;;;;;;7389818;19;20582;-70
2022/04/11 08:26:10;;;;;;;2.93;2.10;;;13.90;95.60;;;;;;7390373;19;20335;-72
2022/04/11 08:28:36;;;;;;;2.53;2.07;;;13.40;95.80;;;;;;7389384;19;20143;-70
2022/04/11 08:31:02;;;;;;;2.77;2.10;;;13.40;96.50;;;;;;7390119;19;20502;-71
2022/04/11 08:33:28;;;;;;;3.13;2.10;;;13.50;96.10;;;;;;7391896;19;20557;-69
2022/04/11 08:35:54;;;;;;;2.80;2.37;;;13.50;96.30;;;;;;7391039;19;20135;-69
2022/04/11 08:38:20;;;;;;;4.07;2.23;;;13.50;95.70;;;;;;7388959;19;20139;-77
2022/04/11 08:40:46;;;;;;;5.13;2.10;;;13.30;95.60;;;;;;7386991;19;20540;-75
2022/04/11 08:43:14;;;;;;;4.93;2.30;;;13.20;96.30;;;;;;7390982;19;20137;-76
2022/04/11 08:45:40;;;;;;;3.83;2.10;;;13.10;95.90;;;;;;7390441;19;20497;-76
2022/04/11 08:48:06;;;;;;;3.63;2.10;;;13.30;95.80;;;;;;7388808;19;20134;-75
2022/04/11 08:50:32;;;;;;;1.70;1.57;;;13.30;95.90;;;;;;7393018;19;20150;-74
2022/04/11 08:52:57;;;;;;;2.40;1.93;;;13.30;95.70;;;;;;7393091;19;20134;-69
2022/04/11 08:55:23;;;;;;;4.33;1.97;;;13.30;96.00;;;;;;7395215;19;20154;-70
2022/04/11 08:57:50;;;;;;;2.27;2.00;;;13.30;95.40;;;;;;7390224;19;20134;-75
2022/04/11 09:00:19;;;;;;;3.30;1.87;;;13.40;95.80;;;;;;7390755;19;20126;-75
2022/04/11 09:02:48;;;;;;;4.00;2.20;;;13.40;95.60;;;;;;7390278;19;20150;-71
2022/04/11 09:05:22;;;;;;;2.10;1.90;;;13.50;95.90;;;;;;7390372;19;20158;-69
2022/04/11 09:07:53;;;;;;;2.70;1.80;;;13.60;95.50;;;;;;7389537;19;20134;-69
2022/04/11 09:10:32;;;;;;;2.57;2.00;;;13.60;95.10;;;;;;7387359;19;20131;-75
2022/04/11 09:13:03;;;;;;;2.20;1.90;;;13.50;95.10;;;;;;7390580;19;20134;-70
2022/04/11 09:15:41;;;;;;;2.17;1.60;;;13.50;94.90;;;;;;7389600;19;20134;-75
2022/04/11 09:18:09;;;;;;;3.47;1.97;;;13.50;95.10;;;;;;7387965;19;20147;-74
2022/04/11 09:20:35;;;;;;;2.60;2.30;;;13.40;95.10;;;;;;7392937;19;20134;-69
2022/04/11 09:23:01;;;;;;;2.87;2.10;;;13.60;95.20;;;;;;7399748;19;20158;-70
2022/04/11 09:25:31;;;;;;;2.20;1.83;;;14.00;94.80;;;;;;7387927;19;20572;-73
2022/04/11 09:28:07;;;;;;;2.87;1.73;;;14.00;94.20;;;;;;7389137;19;20590;-76
2022/04/11 09:30:34;;;;;;;3.17;1.67;;;13.80;94.40;;;;;;7386584;19;20154;-70
2022/04/11 09:33:01;;;;;;;2.53;1.80;;;13.50;94.70;;;;;;7392789;19;20237;-73
2022/04/11 09:35:36;;;;;;;1.70;1.40;;;13.60;95.00;;;;;;7388587;19;20145;-76
2022/04/11 09:38:13;;;;;;;1.47;1.37;;;13.70;94.70;;;;;;7386978;19;20150;-75
2022/04/11 09:40:52;;;;;;;3.07;1.40;;;13.80;94.00;;;;;;7386191;19;20146;-70
2022/04/11 09:43:24;;;;;;;1.43;1.20;;;13.80;92.70;;;;;;7389400;19;20130;-75
2022/04/11 09:45:54;;;;;;;2.53;1.47;;;13.70;93.10;;;;;;7391223;19;20138;-76
2022/04/11 09:48:25;;;;;;;2.30;1.27;;;13.50;93.60;;;;;;7391699;19;20135;-67
2022/04/11 09:50:52;;;;;;;1.40;1.27;;;13.40;93.70;;;;;;7391043;19;20131;-69
2022/04/11 09:53:45;;;;;;;2.77;1.50;;;13.50;93.40;;;;;;7393448;19;20143;-76
2022/04/11 09:56:11;;;;;;;1.50;1.40;;;13.40;93.40;;;;;;7387038;19;20143;-70
2022/04/11 09:58:39;;;;;;;2.10;1.60;;;13.40;93.90;;;;;;7389523;19;20134;-76
2022/04/11 10:01:07;;;;;;;2.43;1.30;;;13.40;93.80;;;;;;7388920;19;20127;-75
2022/04/11 10:03:33;;;;;;;2.13;1.57;;;13.70;93.50;;;;;;7390423;19;20499;-74
2022/04/11 10:06:03;;;;;;;1.10;1.00;;;13.80;93.60;;;;;;7387720;19;20130;-70
2022/04/11 10:08:30;;;;;;;1.23;1.03;;;14.00;93.30;;;;;;7386708;19;20122;-70
2022/04/11 10:10:56;;;;;;;2.97;1.43;;;14.20;92.80;;;;;;7390482;19;20143;-76
2022/04/11 10:13:23;;;;;;;3.50;1.37;;;14.30;92.30;;;;;;7390677;19;20131;-75
2022/04/11 10:15:51;;;;;;;2.77;1.63;;;14.10;92.50;;;;;;7389427;19;20150;-71
2022/04/11 10:18:25;;;;;;;2.40;1.20;;;14.00;92.00;;;;;;7393479;19;20164;-71
2022/04/11 10:21:05;;;;;;;2.30;1.40;;;13.90;91.80;;;;;;7392420;19;20129;-70
2022/04/11 10:23:50;;;;;;;0.97;0.97;;;14.00;91.90;;;;;;7387956;19;20142;-70
2022/04/11 10:26:17;;;;;;;2.03;1.50;;;14.20;91.60;;;;;;7388853;19;20133;-73
2022/04/11 10:28:48;;;;;;;1.63;1.10;;;14.30;91.20;;;;;;7386949;19;20135;-70
2022/04/11 10:31:15;;;;;;;2.93;1.10;;;14.30;90.80;;;;;;7389987;19;20130;-69
2022/04/11 10:33:49;;;;;;;1.80;1.10;;;14.20;90.30;;;;;;7388865;19;20174;-70
2022/04/11 10:36:34;;;;;;;1.27;0.90;;;14.20;90.30;;;;;;7384338;19;20531;-70
2022/04/11 10:39:26;;;;;;;1.50;1.13;;;14.30;90.00;;;;;;7386044;19;20138;-75
2022/04/11 10:41:54;;;;;;;2.83;1.50;;;14.30;89.80;;;;;;7387028;19;20165;-70
2022/04/11 10:44:33;;;;;;;2.90;1.20;;;14.20;90.20;;;;;;7386429;19;20131;-69
2022/04/11 10:47:08;;;;;;;1.53;1.00;;;14.40;89.40;;;;;;7386939;19;20216;-69
2022/04/11 10:49:48;;;;;;;1.57;0.90;;;14.30;90.00;;;;;;7388183;19;20521;-70
2022/04/11 10:52:35;;;;;;;4.33;1.20;;;14.40;90.00;;;;;;7390528;19;20212;-78
2022/04/11 10:55:06;;;;;;;2.10;1.40;;;14.50;89.00;;;;;;7393929;19;20492;-69
2022/04/11 10:57:37;;;;;;;3.30;1.23;;;14.70;89.80;;;;;;7386902;19;20138;-71
2022/04/11 11:00:09;;;;;;;2.07;1.50;;;15.00;88.90;;;;;;7384684;19;20141;-77
2022/04/11 11:02:53;;;;;;;1.97;1.30;;;14.80;88.50;;;;;;7386693;19;20424;-77
2022/04/11 11:05:31;;;;;;;2.50;1.20;;;14.80;88.40;;;;;;7385339;19;20115;-76
2022/04/11 11:08:21;;;;;;;1.60;1.23;;;14.80;89.00;;;;;;7387227;19;20474;-76
2022/04/11 11:10:52;;;;;;;2.70;1.13;;;14.80;89.90;;;;;;7385992;19;20139;-75
2022/04/11 11:13:47;;;;;;;1.40;1.23;;;14.90;89.70;;;;;;7388554;19;20532;-72
2022/04/11 11:16:14;;;;;;;1.80;0.97;;;15.00;88.70;;;;;;7384261;19;20530;-69
2022/04/11 11:18:46;;;;;;;2.30;1.70;;;14.80;89.50;;;;;;7386529;19;20159;-74
2022/04/11 11:21:13;;;;;;;1.95;1.48;;;14.90;89.50;;;;;;7384716;19;20143;-75
2022/04/11 11:23:38;;;;;;;1.27;1.03;;;15.00;89.00;;;;;;7384940;19;20150;-71
2022/04/11 11:26:15;;;;;;;1.55;0.95;;;14.90;89.20;;;;;;7385319;19;20162;-69
2022/04/11 11:28:42;;;;;;;3.83;1.17;;;15.10;88.40;;;;;;7385053;19;20327;-69
2022/04/11 11:31:11;;;;;;;2.40;1.23;;;15.20;88.50;;;;;;7383317;19;20531;-77
2022/04/11 11:33:37;;;;;;;3.22;1.45;;;15.30;88.00;;;;;;7393788;19;20115;-74
2022/04/11 11:36:03;;;;;;;1.90;1.20;;;15.50;87.30;;;;;;7384480;19;20149;-70
2022/04/11 11:38:31;;;;;;;2.15;1.10;;;15.50;85.40;;;;;;7385303;19;20131;-75
2022/04/11 11:41:00;;;;;;;1.17;1.08;;;15.50;85.90;;;;;;7381921;19;20170;-70
2022/04/11 11:43:27;;;;;;;2.22;1.20;;;15.60;85.00;;;;;;7386073;19;20123;-70
2022/04/11 11:46:01;;;;;;;2.40;1.30;;;15.50;84.90;;;;;;7385638;19;20201;-71
2022/04/11 11:48:29;;;;;;;2.60;1.23;;;15.70;86.40;;;;;;7384401;19;20134;-76
2022/04/11 11:50:56;;;;;;;3.47;1.33;;;15.80;85.00;;;;;;7386132;19;20134;-75
2022/04/11 11:53:24;;;;;;;4.50;1.37;;;15.80;84.80;;;;;;7385059;19;20135;-71
2022/04/11 11:55:58;;;;;;;2.20;1.43;;;15.80;84.00;;;;;;7387062;19;20135;-70
2022/04/11 11:58:38;;;;;;;2.42;1.30;;;15.80;84.80;;;;;;7383699;19;20610;-69
2022/04/11 12:01:12;;;;;;;1.30;1.10;;;15.70;84.20;;;;;;7383982;19;20162;-76
2022/04/11 12:06:28;;;;;;;3.47;1.60;;;15.90;84.00;;;;;;7384535;19;20143;-76
2022/04/11 12:09:00;;;;;;;1.33;1.23;;;15.70;83.60;;;;;;7383672;19;20677;-77
2022/04/11 12:11:28;;;;;;;2.03;1.15;;;15.60;84.80;;;;;;7390512;19;20147;-76
2022/04/11 12:14:02;;;;;;;1.03;0.93;;;15.80;82.80;;;;;;7390775;19;20218;-69
2022/04/11 12:16:29;;;;;;;1.70;1.20;;;15.80;81.90;;;;;;7392002;19;20134;-71
2022/04/11 12:18:57;;;;;;;1.70;1.20;;;15.80;81.40;;;;;;7393226;19;20729;-75
2022/04/11 12:21:39;;;;;;;1.75;1.30;;;15.90;82.20;;;;;;7390968;19;20139;-70
2022/04/11 12:24:09;;;;;;;2.33;1.10;;;16.00;82.90;;;;;;7389895;19;20135;-69
2022/04/11 12:26:40;;;;;;;1.23;1.00;;;15.90;81.30;;;;;;7390918;19;20598;-73
2022/04/11 12:29:13;;;;;;;2.90;1.60;;;16.00;80.20;;;;;;7389359;19;20170;-76
2022/04/11 12:31:53;;;;;;;4.28;1.30;;;16.00;82.00;;;;;;7387407;19;20645;-71
2022/04/11 12:34:18;;;;;;;2.40;1.42;;;16.20;82.20;;;;;;7390461;19;20130;-75
2022/04/11 12:36:59;;;;;;;1.95;1.35;;;16.30;80.40;;;;;;7391641;19;20543;-76
2022/04/11 12:39:25;;;;;;;2.20;1.25;;;16.40;79.80;;;;;;7393306;19;20167;-70
2022/04/11 12:41:51;;;;;;;1.63;1.20;;;16.30;80.30;;;;;;7391230;19;20138;-75
2022/04/11 12:44:20;;;;;;;3.00;1.30;;;16.40;79.60;;;;;;7388941;19;20127;-71
2022/04/11 12:47:03;;;;;;;1.33;1.23;;;16.30;80.10;;;;;;7388840;19;20600;-70
2022/04/11 12:49:51;;;;;;;3.30;1.63;;;16.30;80.40;;;;;;7390844;19;20154;-76
2022/04/11 12:52:20;;;;;;;1.10;1.00;;;16.40;80.40;;;;;;7392048;19;20127;-75
2022/04/11 12:54:51;;;;;;;2.33;1.33;;;16.40;78.90;;;;;;7394521;19;20127;-76
2022/04/11 12:57:23;;;;;;;1.65;1.38;;;16.60;79.00;;;;;;7402817;19;20138;-70
2022/04/11 12:59:50;;;;;;;3.58;1.60;;;16.40;79.10;;;;;;7393090;19;20146;-69